sensor_id;sensor_type;location;lat;lon;timestamp;P1;durP1;ratioP1;P2;durP2;ratioP2
17151;SDS011;8691;50.828;4.700;2023-03-20T00:00:14;9.93;;;6.13;;
17151;SDS011;8691;50.828;4.700;2023-03-20T00:03:04;11.80;;;7.33;;
17151;SDS011;8691;50.828;4.700;2023-03-20T00:05:41;7.63;;;5.93;;
17151;SDS011;8691;50.828;4.700;2023-03-20T00:08:17;8.20;;;6.03;;
17151;SDS011;8691;50.828;4.700;2023-03-20T00:10:54;8.00;;;6.07;;
17151;SDS011;8691;50.828;4.700;2023-03-20T00:13:32;8.70;;;6.57;;
17151;SDS011;8691;50.828;4.700;2023-03-20T00:16:08;8.63;;;5.90;;
17151;SDS011;8691;50.828;4.700;2023-03-20T00:18:45;9.30;;;6.53;;
17151;SDS011;8691;50.828;4.700;2023-03-20T00:21:21;9.40;;;6.87;;
17151;SDS011;8691;50.828;4.700;2023-03-20T00:23:59;9.60;;;6.63;;
17151;SDS011;8691;50.828;4.700;2023-03-20T00:26:36;11.07;;;6.70;;
17151;SDS011;8691;50.828;4.700;2023-03-20T00:29:14;8.13;;;6.53;;
17151;SDS011;8691;50.828;4.700;2023-03-20T00:31:58;11.53;;;6.13;;
17151;SDS011;8691;50.828;4.700;2023-03-20T00:34:35;10.57;;;6.63;;
17151;SDS011;8691;50.828;4.700;2023-03-20T00:37:11;9.40;;;6.40;;
17151;SDS011;8691;50.828;4.700;2023-03-20T00:39:48;11.37;;;9.17;;
17151;SDS011;8691;50.828;4.700;2023-03-20T00:42:25;10.37;;;9.00;;
17151;SDS011;8691;50.828;4.700;2023-03-20T00:45:02;8.47;;;6.87;;
17151;SDS011;8691;50.828;4.700;2023-03-20T00:47:39;7.67;;;6.53;;
17151;SDS011;8691;50.828;4.700;2023-03-20T00:50:20;10.33;;;6.37;;
17151;SDS011;8691;50.828;4.700;2023-03-20T00:52:58;9.93;;;6.27;;
17151;SDS011;8691;50.828;4.700;2023-03-20T00:55:34;7.03;;;6.30;;
17151;SDS011;8691;50.828;4.700;2023-03-20T00:58:11;9.53;;;7.03;;
17151;SDS011;8691;50.828;4.700;2023-03-20T01:00:48;11.13;;;6.83;;
17151;SDS011;8691;50.828;4.700;2023-03-20T01:03:25;8.20;;;6.30;;
17151;SDS011;8691;50.828;4.700;2023-03-20T01:06:01;7.17;;;5.97;;
17151;SDS011;8691;50.828;4.700;2023-03-20T01:08:38;6.83;;;6.13;;
17151;SDS011;8691;50.828;4.700;2023-03-20T01:11:19;7.57;;;6.50;;
17151;SDS011;8691;50.828;4.700;2023-03-20T01:13:54;7.20;;;6.47;;
17151;SDS011;8691;50.828;4.700;2023-03-20T01:16:30;8.80;;;6.43;;
17151;SDS011;8691;50.828;4.700;2023-03-20T01:19:11;9.37;;;7.00;;
17151;SDS011;8691;50.828;4.700;2023-03-20T01:21:47;14.53;;;6.83;;
17151;SDS011;8691;50.828;4.700;2023-03-20T01:24:24;7.97;;;6.70;;
17151;SDS011;8691;50.828;4.700;2023-03-20T01:27:01;9.23;;;6.80;;
17151;SDS011;8691;50.828;4.700;2023-03-20T01:29:37;9.13;;;6.83;;
17151;SDS011;8691;50.828;4.700;2023-03-20T01:32:15;11.67;;;7.43;;
17151;SDS011;8691;50.828;4.700;2023-03-20T01:34:50;10.67;;;7.63;;
17151;SDS011;8691;50.828;4.700;2023-03-20T01:37:27;10.43;;;7.63;;
17151;SDS011;8691;50.828;4.700;2023-03-20T01:40:07;9.07;;;7.03;;
17151;SDS011;8691;50.828;4.700;2023-03-20T01:42:41;11.60;;;7.50;;
17151;SDS011;8691;50.828;4.700;2023-03-20T01:45:19;9.43;;;7.47;;
17151;SDS011;8691;50.828;4.700;2023-03-20T01:47:55;10.13;;;8.90;;
17151;SDS011;8691;50.828;4.700;2023-03-20T01:50:35;9.10;;;6.70;;
17151;SDS011;8691;50.828;4.700;2023-03-20T01:53:27;7.07;;;6.23;;
17151;SDS011;8691;50.828;4.700;2023-03-20T01:55:53;9.23;;;6.90;;
17151;SDS011;8691;50.828;4.700;2023-03-20T01:58:30;12.53;;;9.30;;
17151;SDS011;8691;50.828;4.700;2023-03-20T02:01:05;10.10;;;9.03;;
17151;SDS011;8691;50.828;4.700;2023-03-20T02:03:42;8.53;;;7.63;;
17151;SDS011;8691;50.828;4.700;2023-03-20T02:06:19;11.40;;;6.93;;
17151;SDS011;8691;50.828;4.700;2023-03-20T02:08:55;9.77;;;7.03;;
17151;SDS011;8691;50.828;4.700;2023-03-20T02:11:33;10.63;;;7.80;;
17151;SDS011;8691;50.828;4.700;2023-03-20T02:14:09;11.10;;;7.80;;
17151;SDS011;8691;50.828;4.700;2023-03-20T02:16:46;8.73;;;7.23;;
17151;SDS011;8691;50.828;4.700;2023-03-20T02:19:28;10.27;;;8.10;;
17151;SDS011;8691;50.828;4.700;2023-03-20T02:25:11;11.63;;;8.37;;
17151;SDS011;8691;50.828;4.700;2023-03-20T02:44:58;14.43;;;10.13;;
17151;SDS011;8691;50.828;4.700;2023-03-20T02:47:40;15.47;;;11.00;;
17151;SDS011;8691;50.828;4.700;2023-03-20T02:50:15;15.33;;;9.77;;
17151;SDS011;8691;50.828;4.700;2023-03-20T02:53:08;15.20;;;9.90;;
17151;SDS011;8691;50.828;4.700;2023-03-20T02:58:26;15.03;;;10.40;;
17151;SDS011;8691;50.828;4.700;2023-03-20T03:01:15;13.60;;;10.73;;
17151;SDS011;8691;50.828;4.700;2023-03-20T03:03:55;15.77;;;11.20;;
17151;SDS011;8691;50.828;4.700;2023-03-20T03:06:34;13.90;;;10.17;;
17151;SDS011;8691;50.828;4.700;2023-03-20T03:11:56;19.00;;;14.10;;
17151;SDS011;8691;50.828;4.700;2023-03-20T03:14:42;20.27;;;14.83;;
17151;SDS011;8691;50.828;4.700;2023-03-20T03:17:18;19.43;;;12.23;;
17151;SDS011;8691;50.828;4.700;2023-03-20T03:19:56;18.00;;;11.00;;
17151;SDS011;8691;50.828;4.700;2023-03-20T03:22:31;19.63;;;11.60;;
17151;SDS011;8691;50.828;4.700;2023-03-20T03:25:09;19.10;;;10.83;;
17151;SDS011;8691;50.828;4.700;2023-03-20T03:27:46;17.00;;;11.07;;
17151;SDS011;8691;50.828;4.700;2023-03-20T03:30:26;17.30;;;11.57;;
17151;SDS011;8691;50.828;4.700;2023-03-20T03:35:48;15.80;;;11.30;;
17151;SDS011;8691;50.828;4.700;2023-03-20T03:43:45;21.27;;;15.20;;
17151;SDS011;8691;50.828;4.700;2023-03-20T03:46:46;23.83;;;15.52;;
17151;SDS011;8691;50.828;4.700;2023-03-20T03:49:41;20.57;;;13.17;;
17151;SDS011;8691;50.828;4.700;2023-03-20T03:52:19;18.17;;;11.90;;
17151;SDS011;8691;50.828;4.700;2023-03-20T03:54:58;15.23;;;10.13;;
17151;SDS011;8691;50.828;4.700;2023-03-20T03:57:44;18.90;;;12.17;;
17151;SDS011;8691;50.828;4.700;2023-03-20T04:00:10;16.60;;;11.13;;
17151;SDS011;8691;50.828;4.700;2023-03-20T04:02:47;19.37;;;10.80;;
17151;SDS011;8691;50.828;4.700;2023-03-20T04:05:23;15.30;;;11.07;;
17151;SDS011;8691;50.828;4.700;2023-03-20T04:08:00;20.37;;;10.93;;
17151;SDS011;8691;50.828;4.700;2023-03-20T04:10:36;17.97;;;11.30;;
17151;SDS011;8691;50.828;4.700;2023-03-20T04:13:13;20.73;;;11.50;;
17151;SDS011;8691;50.828;4.700;2023-03-20T04:15:50;17.23;;;11.67;;
17151;SDS011;8691;50.828;4.700;2023-03-20T04:18:27;21.92;;;14.80;;
17151;SDS011;8691;50.828;4.700;2023-03-20T04:21:04;19.33;;;12.40;;
17151;SDS011;8691;50.828;4.700;2023-03-20T04:23:40;17.20;;;10.80;;
17151;SDS011;8691;50.828;4.700;2023-03-20T04:26:17;17.10;;;11.50;;
17151;SDS011;8691;50.828;4.700;2023-03-20T04:28:54;18.30;;;11.07;;
17151;SDS011;8691;50.828;4.700;2023-03-20T04:31:30;14.97;;;11.17;;
17151;SDS011;8691;50.828;4.700;2023-03-20T04:34:07;20.67;;;11.93;;
17151;SDS011;8691;50.828;4.700;2023-03-20T04:36:44;20.80;;;14.47;;
17151;SDS011;8691;50.828;4.700;2023-03-20T04:39:21;15.30;;;11.23;;
17151;SDS011;8691;50.828;4.700;2023-03-20T04:41:57;20.77;;;11.20;;
17151;SDS011;8691;50.828;4.700;2023-03-20T04:44:34;17.87;;;10.60;;
17151;SDS011;8691;50.828;4.700;2023-03-20T04:47:11;18.77;;;11.03;;
17151;SDS011;8691;50.828;4.700;2023-03-20T04:49:48;19.90;;;10.90;;
17151;SDS011;8691;50.828;4.700;2023-03-20T04:52:24;17.10;;;11.20;;
17151;SDS011;8691;50.828;4.700;2023-03-20T04:55:01;18.40;;;10.87;;
17151;SDS011;8691;50.828;4.700;2023-03-20T04:57:38;20.97;;;10.93;;
17151;SDS011;8691;50.828;4.700;2023-03-20T05:00:15;18.90;;;11.27;;
17151;SDS011;8691;50.828;4.700;2023-03-20T05:02:51;18.03;;;11.07;;
17151;SDS011;8691;50.828;4.700;2023-03-20T05:05:28;23.27;;;12.00;;
17151;SDS011;8691;50.828;4.700;2023-03-20T05:08:05;17.13;;;10.43;;
17151;SDS011;8691;50.828;4.700;2023-03-20T05:10:42;16.50;;;10.30;;
17151;SDS011;8691;50.828;4.700;2023-03-20T05:13:19;18.47;;;10.53;;
17151;SDS011;8691;50.828;4.700;2023-03-20T05:15:56;21.73;;;13.93;;
17151;SDS011;8691;50.828;4.700;2023-03-20T05:18:33;18.13;;;11.17;;
17151;SDS011;8691;50.828;4.700;2023-03-20T05:21:09;19.93;;;10.57;;
17151;SDS011;8691;50.828;4.700;2023-03-20T05:23:46;20.03;;;10.73;;
17151;SDS011;8691;50.828;4.700;2023-03-20T05:26:23;15.97;;;10.00;;
17151;SDS011;8691;50.828;4.700;2023-03-20T05:29:00;20.00;;;10.83;;
17151;SDS011;8691;50.828;4.700;2023-03-20T05:31:36;18.27;;;10.83;;
17151;SDS011;8691;50.828;4.700;2023-03-20T05:34:13;17.73;;;10.13;;
17151;SDS011;8691;50.828;4.700;2023-03-20T05:36:50;18.93;;;10.50;;
17151;SDS011;8691;50.828;4.700;2023-03-20T05:39:27;20.90;;;13.05;;
17151;SDS011;8691;50.828;4.700;2023-03-20T05:42:04;17.90;;;10.00;;
17151;SDS011;8691;50.828;4.700;2023-03-20T05:44:40;14.87;;;9.67;;
17151;SDS011;8691;50.828;4.700;2023-03-20T05:47:17;17.07;;;9.87;;
17151;SDS011;8691;50.828;4.700;2023-03-20T05:49:54;21.23;;;10.83;;
17151;SDS011;8691;50.828;4.700;2023-03-20T05:52:30;17.07;;;10.07;;
17151;SDS011;8691;50.828;4.700;2023-03-20T05:55:07;23.07;;;10.17;;
17151;SDS011;8691;50.828;4.700;2023-03-20T05:57:44;17.30;;;8.87;;
17151;SDS011;8691;50.828;4.700;2023-03-20T06:00:21;14.40;;;9.27;;
17151;SDS011;8691;50.828;4.700;2023-03-20T06:02:57;20.10;;;8.80;;
17151;SDS011;8691;50.828;4.700;2023-03-20T06:05:34;16.97;;;8.50;;
17151;SDS011;8691;50.828;4.700;2023-03-20T06:08:11;13.20;;;8.37;;
17151;SDS011;8691;50.828;4.700;2023-03-20T06:10:50;14.20;;;7.37;;
17151;SDS011;8691;50.828;4.700;2023-03-20T06:13:27;13.73;;;8.40;;
17151;SDS011;8691;50.828;4.700;2023-03-20T06:16:04;16.03;;;9.50;;
17151;SDS011;8691;50.828;4.700;2023-03-20T06:18:41;18.80;;;8.20;;
17151;SDS011;8691;50.828;4.700;2023-03-20T06:21:18;16.77;;;7.60;;
17151;SDS011;8691;50.828;4.700;2023-03-20T06:23:54;15.27;;;8.03;;
17151;SDS011;8691;50.828;4.700;2023-03-20T06:26:31;16.73;;;8.30;;
17151;SDS011;8691;50.828;4.700;2023-03-20T06:29:08;13.27;;;7.17;;
17151;SDS011;8691;50.828;4.700;2023-03-20T06:31:44;11.83;;;7.20;;
17151;SDS011;8691;50.828;4.700;2023-03-20T06:34:21;15.47;;;9.13;;
17151;SDS011;8691;50.828;4.700;2023-03-20T06:36:58;14.27;;;7.20;;
17151;SDS011;8691;50.828;4.700;2023-03-20T06:39:34;13.13;;;7.00;;
17151;SDS011;8691;50.828;4.700;2023-03-20T06:42:11;10.87;;;6.40;;
17151;SDS011;8691;50.828;4.700;2023-03-20T06:44:48;12.93;;;6.23;;
17151;SDS011;8691;50.828;4.700;2023-03-20T06:47:25;14.53;;;7.93;;
17151;SDS011;8691;50.828;4.700;2023-03-20T06:50:01;10.90;;;5.90;;
17151;SDS011;8691;50.828;4.700;2023-03-20T06:52:38;15.50;;;6.33;;
17151;SDS011;8691;50.828;4.700;2023-03-20T06:55:15;12.40;;;5.60;;
17151;SDS011;8691;50.828;4.700;2023-03-20T06:57:52;12.97;;;5.50;;
17151;SDS011;8691;50.828;4.700;2023-03-20T07:00:29;12.77;;;6.40;;
17151;SDS011;8691;50.828;4.700;2023-03-20T07:03:05;11.83;;;5.80;;
17151;SDS011;8691;50.828;4.700;2023-03-20T07:05:42;8.83;;;5.17;;
17151;SDS011;8691;50.828;4.700;2023-03-20T07:08:19;13.13;;;7.10;;
17151;SDS011;8691;50.828;4.700;2023-03-20T07:10:56;9.87;;;5.50;;
17151;SDS011;8691;50.828;4.700;2023-03-20T07:13:32;9.20;;;5.00;;
17151;SDS011;8691;50.828;4.700;2023-03-20T07:16:09;9.60;;;5.07;;
17151;SDS011;8691;50.828;4.700;2023-03-20T07:18:45;12.33;;;5.07;;
17151;SDS011;8691;50.828;4.700;2023-03-20T07:21:22;9.93;;;5.30;;
17151;SDS011;8691;50.828;4.700;2023-03-20T07:23:59;13.63;;;5.30;;
17151;SDS011;8691;50.828;4.700;2023-03-20T07:26:35;12.07;;;4.73;;
17151;SDS011;8691;50.828;4.700;2023-03-20T07:29:12;14.00;;;5.00;;
17151;SDS011;8691;50.828;4.700;2023-03-20T07:31:49;10.00;;;4.77;;
17151;SDS011;8691;50.828;4.700;2023-03-20T07:34:25;11.37;;;4.77;;
17151;SDS011;8691;50.828;4.700;2023-03-20T07:37:02;9.90;;;4.40;;
17151;SDS011;8691;50.828;4.700;2023-03-20T07:39:39;10.00;;;4.47;;
17151;SDS011;8691;50.828;4.700;2023-03-20T07:42:16;9.70;;;4.27;;
17151;SDS011;8691;50.828;4.700;2023-03-20T07:44:53;10.23;;;4.40;;
17151;SDS011;8691;50.828;4.700;2023-03-20T07:47:29;6.93;;;4.20;;
17151;SDS011;8691;50.828;4.700;2023-03-20T07:50:06;9.57;;;3.93;;
17151;SDS011;8691;50.828;4.700;2023-03-20T07:52:46;13.03;;;4.93;;
17151;SDS011;8691;50.828;4.700;2023-03-20T07:55:25;11.43;;;5.18;;
17151;SDS011;8691;50.828;4.700;2023-03-20T07:58:02;13.03;;;4.73;;
17151;SDS011;8691;50.828;4.700;2023-03-20T08:00:38;10.23;;;3.87;;
17151;SDS011;8691;50.828;4.700;2023-03-20T08:03:15;9.10;;;4.03;;
17151;SDS011;8691;50.828;4.700;2023-03-20T08:05:52;10.43;;;4.40;;
17151;SDS011;8691;50.828;4.700;2023-03-20T08:08:29;6.73;;;3.63;;
17151;SDS011;8691;50.828;4.700;2023-03-20T08:11:05;11.40;;;4.00;;
17151;SDS011;8691;50.828;4.700;2023-03-20T08:13:42;11.63;;;4.10;;
17151;SDS011;8691;50.828;4.700;2023-03-20T08:16:19;11.73;;;4.57;;
17151;SDS011;8691;50.828;4.700;2023-03-20T08:18:56;11.40;;;3.77;;
17151;SDS011;8691;50.828;4.700;2023-03-20T08:21:32;11.07;;;3.87;;
17151;SDS011;8691;50.828;4.700;2023-03-20T08:24:09;10.70;;;4.53;;
17151;SDS011;8691;50.828;4.700;2023-03-20T08:26:46;13.27;;;3.80;;
17151;SDS011;8691;50.828;4.700;2023-03-20T08:29:23;11.63;;;3.70;;
17151;SDS011;8691;50.828;4.700;2023-03-20T08:31:59;9.65;;;4.40;;
17151;SDS011;8691;50.828;4.700;2023-03-20T08:34:36;10.20;;;3.73;;
17151;SDS011;8691;50.828;4.700;2023-03-20T08:37:13;9.60;;;4.40;;
17151;SDS011;8691;50.828;4.700;2023-03-20T08:39:50;10.50;;;3.73;;
17151;SDS011;8691;50.828;4.700;2023-03-20T08:42:26;10.90;;;4.00;;
17151;SDS011;8691;50.828;4.700;2023-03-20T08:45:03;7.93;;;3.30;;
17151;SDS011;8691;50.828;4.700;2023-03-20T08:47:40;7.07;;;3.30;;
17151;SDS011;8691;50.828;4.700;2023-03-20T08:50:16;6.50;;;3.03;;
17151;SDS011;8691;50.828;4.700;2023-03-20T08:52:54;9.80;;;4.50;;
17151;SDS011;8691;50.828;4.700;2023-03-20T08:55:31;8.13;;;3.43;;
17151;SDS011;8691;50.828;4.700;2023-03-20T08:58:08;10.83;;;4.27;;
17151;SDS011;8691;50.828;4.700;2023-03-20T09:00:46;7.97;;;3.60;;
17151;SDS011;8691;50.828;4.700;2023-03-20T09:03:22;9.03;;;3.63;;
17151;SDS011;8691;50.828;4.700;2023-03-20T09:06:00;8.57;;;4.00;;
17151;SDS011;8691;50.828;4.700;2023-03-20T09:08:37;9.55;;;4.20;;
17151;SDS011;8691;50.828;4.700;2023-03-20T09:11:14;13.13;;;4.20;;
17151;SDS011;8691;50.828;4.700;2023-03-20T09:13:50;7.60;;;3.57;;
17151;SDS011;8691;50.828;4.700;2023-03-20T09:16:28;6.30;;;3.07;;
17151;SDS011;8691;50.828;4.700;2023-03-20T09:19:04;8.10;;;3.30;;
17151;SDS011;8691;50.828;4.700;2023-03-20T09:21:41;8.27;;;3.60;;
17151;SDS011;8691;50.828;4.700;2023-03-20T09:24:18;9.23;;;3.93;;
17151;SDS011;8691;50.828;4.700;2023-03-20T09:26:54;10.70;;;3.43;;
17151;SDS011;8691;50.828;4.700;2023-03-20T09:29:31;9.60;;;3.67;;
17151;SDS011;8691;50.828;4.700;2023-03-20T09:32:11;10.30;;;4.00;;
17151;SDS011;8691;50.828;4.700;2023-03-20T09:34:47;6.50;;;3.40;;
17151;SDS011;8691;50.828;4.700;2023-03-20T09:37:24;7.10;;;3.83;;
17151;SDS011;8691;50.828;4.700;2023-03-20T09:40:00;9.73;;;3.47;;
17151;SDS011;8691;50.828;4.700;2023-03-20T09:48:34;8.33;;;3.60;;
17151;SDS011;8691;50.828;4.700;2023-03-20T10:43:07;8.20;;;4.13;;
17151;SDS011;8691;50.828;4.700;2023-03-20T10:46:15;11.97;;;4.20;;
17151;SDS011;8691;50.828;4.700;2023-03-20T10:48:08;12.57;;;3.93;;
17151;SDS011;8691;50.828;4.700;2023-03-20T10:50:34;12.48;;;5.18;;
17151;SDS011;8691;50.828;4.700;2023-03-20T10:56:37;9.20;;;4.10;;
17151;SDS011;8691;50.828;4.700;2023-03-20T10:59:07;8.82;;;3.70;;
17151;SDS011;8691;50.828;4.700;2023-03-20T11:01:33;12.55;;;4.55;;
17151;SDS011;8691;50.828;4.700;2023-03-20T11:04:00;10.38;;;4.10;;
17151;SDS011;8691;50.828;4.700;2023-03-20T11:06:27;7.67;;;3.07;;
17151;SDS011;8691;50.828;4.700;2023-03-20T11:08:53;10.90;;;3.60;;
17151;SDS011;8691;50.828;4.700;2023-03-20T11:11:20;9.60;;;2.80;;
17151;SDS011;8691;50.828;4.700;2023-03-20T11:13:47;7.82;;;3.20;;
17151;SDS011;8691;50.828;4.700;2023-03-20T11:16:21;8.03;;;2.70;;
17151;SDS011;8691;50.828;4.700;2023-03-20T11:18:50;8.27;;;3.20;;
17151;SDS011;8691;50.828;4.700;2023-03-20T11:21:17;6.90;;;2.50;;
17151;SDS011;8691;50.828;4.700;2023-03-20T11:23:46;7.65;;;2.47;;
17151;SDS011;8691;50.828;4.700;2023-03-20T11:26:13;12.83;;;2.87;;
17151;SDS011;8691;50.828;4.700;2023-03-20T11:33:39;9.07;;;3.00;;
17151;SDS011;8691;50.828;4.700;2023-03-20T11:36:10;8.20;;;2.97;;
17151;SDS011;8691;50.828;4.700;2023-03-20T11:38:41;7.17;;;2.80;;
17151;SDS011;8691;50.828;4.700;2023-03-20T11:41:03;6.93;;;2.63;;
17151;SDS011;8691;50.828;4.700;2023-03-20T11:43:30;6.43;;;2.80;;
17151;SDS011;8691;50.828;4.700;2023-03-20T11:45:58;8.73;;;2.90;;
17151;SDS011;8691;50.828;4.700;2023-03-20T11:48:25;6.23;;;2.80;;
17151;SDS011;8691;50.828;4.700;2023-03-20T11:51:03;5.63;;;2.60;;
17151;SDS011;8691;50.828;4.700;2023-03-20T11:53:33;8.90;;;2.95;;
17151;SDS011;8691;50.828;4.700;2023-03-20T11:56:04;7.28;;;2.70;;
17151;SDS011;8691;50.828;4.700;2023-03-20T11:58:33;10.27;;;3.28;;
17151;SDS011;8691;50.828;4.700;2023-03-20T12:01:00;9.80;;;3.60;;
17151;SDS011;8691;50.828;4.700;2023-03-20T12:03:35;8.70;;;3.13;;
17151;SDS011;8691;50.828;4.700;2023-03-20T12:06:00;9.70;;;2.80;;
17151;SDS011;8691;50.828;4.700;2023-03-20T12:08:27;7.10;;;2.90;;
17151;SDS011;8691;50.828;4.700;2023-03-20T12:10:54;7.27;;;2.80;;
17151;SDS011;8691;50.828;4.700;2023-03-20T12:13:27;9.50;;;3.05;;
17151;SDS011;8691;50.828;4.700;2023-03-20T12:16:06;7.78;;;2.97;;
17151;SDS011;8691;50.828;4.700;2023-03-20T12:18:35;8.60;;;2.93;;
17151;SDS011;8691;50.828;4.700;2023-03-20T12:23:45;8.73;;;3.25;;
17151;SDS011;8691;50.828;4.700;2023-03-20T12:26:14;7.47;;;3.00;;
17151;SDS011;8691;50.828;4.700;2023-03-20T12:31:41;8.00;;;3.00;;
17151;SDS011;8691;50.828;4.700;2023-03-20T12:34:06;8.27;;;2.63;;
17151;SDS011;8691;50.828;4.700;2023-03-20T12:36:44;5.57;;;2.33;;
17151;SDS011;8691;50.828;4.700;2023-03-20T12:39:11;9.77;;;2.90;;
17151;SDS011;8691;50.828;4.700;2023-03-20T12:52:52;7.57;;;2.90;;
17151;SDS011;8691;50.828;4.700;2023-03-20T12:55:22;10.53;;;3.20;;
17151;SDS011;8691;50.828;4.700;2023-03-20T12:57:59;10.47;;;3.27;;
17151;SDS011;8691;50.828;4.700;2023-03-20T13:00:36;6.90;;;2.97;;
17151;SDS011;8691;50.828;4.700;2023-03-20T13:03:04;8.18;;;3.20;;
17151;SDS011;8691;50.828;4.700;2023-03-20T13:08:07;8.93;;;3.33;;
17151;SDS011;8691;50.828;4.700;2023-03-20T13:13:36;10.07;;;3.47;;
17151;SDS011;8691;50.828;4.700;2023-03-20T13:16:05;9.37;;;3.43;;
17151;SDS011;8691;50.828;4.700;2023-03-20T13:21:49;8.80;;;3.17;;
17151;SDS011;8691;50.828;4.700;2023-03-20T13:24:07;7.87;;;3.47;;
17151;SDS011;8691;50.828;4.700;2023-03-20T13:29:19;11.35;;;3.33;;
17151;SDS011;8691;50.828;4.700;2023-03-20T13:34:16;9.07;;;3.23;;
17151;SDS011;8691;50.828;4.700;2023-03-20T13:36:40;9.87;;;3.00;;
17151;SDS011;8691;50.828;4.700;2023-03-20T13:39:39;10.27;;;3.45;;
17151;SDS011;8691;50.828;4.700;2023-03-20T13:41:55;10.37;;;3.80;;
17151;SDS011;8691;50.828;4.700;2023-03-20T13:44:22;8.73;;;3.47;;
17151;SDS011;8691;50.828;4.700;2023-03-20T13:46:50;9.35;;;3.30;;
17151;SDS011;8691;50.828;4.700;2023-03-20T13:49:21;9.43;;;3.07;;
17151;SDS011;8691;50.828;4.700;2023-03-20T13:51:49;10.90;;;3.65;;
17151;SDS011;8691;50.828;4.700;2023-03-20T13:54:20;10.43;;;3.60;;
17151;SDS011;8691;50.828;4.700;2023-03-20T13:56:59;9.63;;;3.73;;
17151;SDS011;8691;50.828;4.700;2023-03-20T13:59:45;7.53;;;3.40;;
17151;SDS011;8691;50.828;4.700;2023-03-20T14:05:10;9.63;;;3.70;;
17151;SDS011;8691;50.828;4.700;2023-03-20T14:07:36;10.23;;;3.97;;
17151;SDS011;8691;50.828;4.700;2023-03-20T14:13:00;12.97;;;4.20;;
17151;SDS011;8691;50.828;4.700;2023-03-20T14:15:27;10.80;;;4.10;;
17151;SDS011;8691;50.828;4.700;2023-03-20T14:18:02;13.43;;;4.43;;
17151;SDS011;8691;50.828;4.700;2023-03-20T14:20:30;9.73;;;4.03;;
17151;SDS011;8691;50.828;4.700;2023-03-20T14:22:55;9.57;;;3.47;;
17151;SDS011;8691;50.828;4.700;2023-03-20T14:25:22;8.98;;;4.18;;
17151;SDS011;8691;50.828;4.700;2023-03-20T14:27:53;13.35;;;4.50;;
17151;SDS011;8691;50.828;4.700;2023-03-20T14:35:38;12.93;;;4.70;;
17151;SDS011;8691;50.828;4.700;2023-03-20T14:38:08;13.23;;;4.60;;
17151;SDS011;8691;50.828;4.700;2023-03-20T14:40:49;11.57;;;4.30;;
17151;SDS011;8691;50.828;4.700;2023-03-20T14:43:16;11.60;;;4.73;;
17151;SDS011;8691;50.828;4.700;2023-03-20T14:48:41;10.18;;;4.20;;
17151;SDS011;8691;50.828;4.700;2023-03-20T14:51:26;10.75;;;4.45;;
17151;SDS011;8691;50.828;4.700;2023-03-20T14:53:53;12.90;;;5.00;;
17151;SDS011;8691;50.828;4.700;2023-03-20T14:56:24;10.32;;;5.07;;
17151;SDS011;8691;50.828;4.700;2023-03-20T14:58:49;13.20;;;5.00;;
17151;SDS011;8691;50.828;4.700;2023-03-20T15:01:17;8.00;;;4.40;;
17151;SDS011;8691;50.828;4.700;2023-03-20T15:03:43;10.98;;;5.75;;
17151;SDS011;8691;50.828;4.700;2023-03-20T15:06:09;12.12;;;5.28;;
17151;SDS011;8691;50.828;4.700;2023-03-20T15:08:41;11.33;;;5.70;;
17151;SDS011;8691;50.828;4.700;2023-03-20T15:11:06;12.27;;;5.40;;
17151;SDS011;8691;50.828;4.700;2023-03-20T15:13:32;15.67;;;4.63;;
17151;SDS011;8691;50.828;4.700;2023-03-20T15:16:02;9.37;;;4.97;;
17151;SDS011;8691;50.828;4.700;2023-03-20T15:18:26;11.93;;;5.20;;
17151;SDS011;8691;50.828;4.700;2023-03-20T15:20:56;10.60;;;4.77;;
17151;SDS011;8691;50.828;4.700;2023-03-20T15:23:24;12.50;;;6.30;;
17151;SDS011;8691;50.828;4.700;2023-03-20T15:25:53;12.32;;;5.03;;
17151;SDS011;8691;50.828;4.700;2023-03-20T15:28:24;9.80;;;5.30;;
17151;SDS011;8691;50.828;4.700;2023-03-20T15:30:50;11.82;;;5.75;;
17151;SDS011;8691;50.828;4.700;2023-03-20T15:33:24;10.47;;;5.17;;
17151;SDS011;8691;50.828;4.700;2023-03-20T15:35:49;12.23;;;5.27;;
17151;SDS011;8691;50.828;4.700;2023-03-20T15:38:16;10.00;;;5.30;;
17151;SDS011;8691;50.828;4.700;2023-03-20T15:40:43;14.57;;;6.60;;
17151;SDS011;8691;50.828;4.700;2023-03-20T15:43:12;13.47;;;6.27;;
17151;SDS011;8691;50.828;4.700;2023-03-20T15:45:38;14.17;;;6.37;;
17151;SDS011;8691;50.828;4.700;2023-03-20T15:48:06;15.30;;;8.15;;
17151;SDS011;8691;50.828;4.700;2023-03-20T15:50:32;12.17;;;6.50;;
17151;SDS011;8691;50.828;4.700;2023-03-20T15:53:02;11.95;;;6.50;;
17151;SDS011;8691;50.828;4.700;2023-03-20T15:55:28;14.10;;;6.68;;
17151;SDS011;8691;50.828;4.700;2023-03-20T15:57:55;12.60;;;5.72;;
17151;SDS011;8691;50.828;4.700;2023-03-20T16:00:29;13.73;;;5.90;;
17151;SDS011;8691;50.828;4.700;2023-03-20T16:02:58;12.90;;;5.77;;
17151;SDS011;8691;50.828;4.700;2023-03-20T16:05:25;14.43;;;5.27;;
17151;SDS011;8691;50.828;4.700;2023-03-20T16:07:51;12.02;;;5.40;;
17151;SDS011;8691;50.828;4.700;2023-03-20T16:12:54;11.47;;;5.60;;
17151;SDS011;8691;50.828;4.700;2023-03-20T16:15:22;10.25;;;5.45;;
17151;SDS011;8691;50.828;4.700;2023-03-20T16:17:48;12.03;;;6.10;;
17151;SDS011;8691;50.828;4.700;2023-03-20T16:20:15;10.43;;;5.20;;
17151;SDS011;8691;50.828;4.700;2023-03-20T16:22:42;12.65;;;6.15;;
17151;SDS011;8691;50.828;4.700;2023-03-20T16:25:13;12.80;;;5.67;;
17151;SDS011;8691;50.828;4.700;2023-03-20T16:27:39;12.70;;;5.93;;
17151;SDS011;8691;50.828;4.700;2023-03-20T16:30:11;13.60;;;5.88;;
17151;SDS011;8691;50.828;4.700;2023-03-20T16:32:36;12.02;;;6.22;;
17151;SDS011;8691;50.828;4.700;2023-03-20T16:35:02;10.40;;;5.00;;
17151;SDS011;8691;50.828;4.700;2023-03-20T16:37:29;8.15;;;5.45;;
17151;SDS011;8691;50.828;4.700;2023-03-20T16:40:09;13.07;;;5.77;;
17151;SDS011;8691;50.828;4.700;2023-03-20T16:42:28;12.33;;;5.73;;
17151;SDS011;8691;50.828;4.700;2023-03-20T16:44:55;13.53;;;5.40;;
17151;SDS011;8691;50.828;4.700;2023-03-20T16:47:22;11.73;;;5.10;;
17151;SDS011;8691;50.828;4.700;2023-03-20T16:49:49;12.40;;;4.80;;
17151;SDS011;8691;50.828;4.700;2023-03-20T16:52:25;13.82;;;5.62;;
17151;SDS011;8691;50.828;4.700;2023-03-20T16:54:50;13.70;;;5.80;;
17151;SDS011;8691;50.828;4.700;2023-03-20T16:57:17;14.95;;;5.75;;
17151;SDS011;8691;50.828;4.700;2023-03-20T16:59:45;11.73;;;5.50;;
17151;SDS011;8691;50.828;4.700;2023-03-20T17:02:20;10.30;;;5.40;;
17151;SDS011;8691;50.828;4.700;2023-03-20T17:04:47;11.05;;;5.75;;
17151;SDS011;8691;50.828;4.700;2023-03-20T17:07:15;15.30;;;6.20;;
17151;SDS011;8691;50.828;4.700;2023-03-20T17:09:55;11.88;;;5.60;;
17151;SDS011;8691;50.828;4.700;2023-03-20T17:12:21;12.23;;;4.73;;
17151;SDS011;8691;50.828;4.700;2023-03-20T17:14:47;9.17;;;5.10;;
17151;SDS011;8691;50.828;4.700;2023-03-20T17:17:17;11.95;;;5.55;;
17151;SDS011;8691;50.828;4.700;2023-03-20T17:19:41;13.93;;;5.85;;
17151;SDS011;8691;50.828;4.700;2023-03-20T17:22:12;12.98;;;5.70;;
17151;SDS011;8691;50.828;4.700;2023-03-20T17:24:49;12.93;;;4.90;;
17151;SDS011;8691;50.828;4.700;2023-03-20T17:27:16;10.55;;;5.50;;
17151;SDS011;8691;50.828;4.700;2023-03-20T17:29:43;12.50;;;6.05;;
17151;SDS011;8691;50.828;4.700;2023-03-20T17:32:10;12.43;;;5.70;;
17151;SDS011;8691;50.828;4.700;2023-03-20T17:34:36;12.60;;;5.90;;
17151;SDS011;8691;50.828;4.700;2023-03-20T17:37:03;12.60;;;6.18;;
17151;SDS011;8691;50.828;4.700;2023-03-20T17:39:30;12.95;;;6.50;;
17151;SDS011;8691;50.828;4.700;2023-03-20T17:41:57;13.53;;;5.73;;
17151;SDS011;8691;50.828;4.700;2023-03-20T17:44:24;12.55;;;6.28;;
17151;SDS011;8691;50.828;4.700;2023-03-20T17:46:50;15.50;;;6.15;;
17151;SDS011;8691;50.828;4.700;2023-03-20T17:49:18;11.10;;;5.93;;
17151;SDS011;8691;50.828;4.700;2023-03-20T17:51:45;17.73;;;8.73;;
17151;SDS011;8691;50.828;4.700;2023-03-20T17:54:12;14.43;;;9.03;;
17151;SDS011;8691;50.828;4.700;2023-03-20T17:56:39;13.30;;;6.50;;